sensor_id;sensor_type;location;lat;lon;timestamp;temperature;humidity
21551;DHT22;10936;49.836;7.078;2022-09-13T00:01:36;22.80;96.80
21551;DHT22;10936;49.836;7.078;2022-09-13T00:04:02;22.80;96.80
21551;DHT22;10936;49.836;7.078;2022-09-13T00:06:29;22.80;97.10
21551;DHT22;10936;49.836;7.078;2022-09-13T00:08:55;22.80;96.80
21551;DHT22;10936;49.836;7.078;2022-09-13T00:11:24;22.80;96.80
21551;DHT22;10936;49.836;7.078;2022-09-13T00:13:51;22.80;96.80
21551;DHT22;10936;49.836;7.078;2022-09-13T00:16:19;22.80;96.80
21551;DHT22;10936;49.836;7.078;2022-09-13T00:18:45;22.80;96.70
21551;DHT22;10936;49.836;7.078;2022-09-13T00:21:15;22.80;96.70
21551;DHT22;10936;49.836;7.078;2022-09-13T00:23:49;22.80;96.80
21551;DHT22;10936;49.836;7.078;2022-09-13T00:26:18;22.80;96.70
21551;DHT22;10936;49.836;7.078;2022-09-13T00:28:43;22.80;96.70
21551;DHT22;10936;49.836;7.078;2022-09-13T00:31:10;22.80;96.70
21551;DHT22;10936;49.836;7.078;2022-09-13T00:33:36;22.80;96.70
21551;DHT22;10936;49.836;7.078;2022-09-13T00:36:05;22.80;96.70
21551;DHT22;10936;49.836;7.078;2022-09-13T00:38:34;22.80;96.70
21551;DHT22;10936;49.836;7.078;2022-09-13T00:41:00;22.80;96.70
21551;DHT22;10936;49.836;7.078;2022-09-13T00:46:07;22.80;96.70
21551;DHT22;10936;49.836;7.078;2022-09-13T00:48:34;22.80;96.70
21551;DHT22;10936;49.836;7.078;2022-09-13T00:51:01;22.70;96.60
21551;DHT22;10936;49.836;7.078;2022-09-13T00:53:31;22.80;96.70
21551;DHT22;10936;49.836;7.078;2022-09-13T00:56:05;22.70;96.70
21551;DHT22;10936;49.836;7.078;2022-09-13T00:58:38;22.70;96.60
21551;DHT22;10936;49.836;7.078;2022-09-13T01:01:10;22.80;96.70
21551;DHT22;10936;49.836;7.078;2022-09-13T01:03:36;22.80;96.70
21551;DHT22;10936;49.836;7.078;2022-09-13T01:06:10;22.70;96.60
21551;DHT22;10936;49.836;7.078;2022-09-13T01:08:38;22.80;96.60
21551;DHT22;10936;49.836;7.078;2022-09-13T01:11:07;22.80;96.60
21551;DHT22;10936;49.836;7.078;2022-09-13T01:13:37;22.80;96.60
21551;DHT22;10936;49.836;7.078;2022-09-13T01:16:04;22.80;96.60
21551;DHT22;10936;49.836;7.078;2022-09-13T01:18:29;22.80;96.60
21551;DHT22;10936;49.836;7.078;2022-09-13T01:37:38;22.70;96.60
21551;DHT22;10936;49.836;7.078;2022-09-13T01:40:16;22.70;96.60
21551;DHT22;10936;49.836;7.078;2022-09-13T01:43:39;22.70;96.60
21551;DHT22;10936;49.836;7.078;2022-09-13T01:46:05;22.70;96.50
21551;DHT22;10936;49.836;7.078;2022-09-13T01:51:34;22.70;96.50
21551;DHT22;10936;49.836;7.078;2022-09-13T01:54:12;22.70;96.50
21551;DHT22;10936;49.836;7.078;2022-09-13T01:56:44;22.70;96.50
21551;DHT22;10936;49.836;7.078;2022-09-13T02:02:32;22.70;96.50
21551;DHT22;10936;49.836;7.078;2022-09-13T02:07:54;22.70;96.50
21551;DHT22;10936;49.836;7.078;2022-09-13T02:10:37;22.70;96.50
21551;DHT22;10936;49.836;7.078;2022-09-13T02:13:09;22.70;96.50
21551;DHT22;10936;49.836;7.078;2022-09-13T02:15:43;22.70;96.50
21551;DHT22;10936;49.836;7.078;2022-09-13T02:18:21;22.70;96.50
21551;DHT22;10936;49.836;7.078;2022-09-13T02:20:51;22.70;96.50
21551;DHT22;10936;49.836;7.078;2022-09-13T02:26:08;22.70;96.50
21551;DHT22;10936;49.836;7.078;2022-09-13T02:28:44;22.70;96.50
21551;DHT22;10936;49.836;7.078;2022-09-13T02:31:14;22.70;96.50
21551;DHT22;10936;49.836;7.078;2022-09-13T02:33:46;22.70;96.50
21551;DHT22;10936;49.836;7.078;2022-09-13T02:36:20;22.70;96.50
21551;DHT22;10936;49.836;7.078;2022-09-13T02:38:56;22.70;96.50
21551;DHT22;10936;49.836;7.078;2022-09-13T02:46:58;22.60;96.40
21551;DHT22;10936;49.836;7.078;2022-09-13T02:52:29;22.70;96.50
21551;DHT22;10936;49.836;7.078;2022-09-13T02:54:56;22.70;96.50
21551;DHT22;10936;49.836;7.078;2022-09-13T02:57:44;22.70;96.40
21551;DHT22;10936;49.836;7.078;2022-09-13T03:00:13;22.60;96.40
21551;DHT22;10936;49.836;7.078;2022-09-13T03:02:40;22.70;96.50
21551;DHT22;10936;49.836;7.078;2022-09-13T03:05:07;22.70;96.40
21551;DHT22;10936;49.836;7.078;2022-09-13T03:07:33;22.70;96.40
21551;DHT22;10936;49.836;7.078;2022-09-13T03:10:02;22.70;96.40
21551;DHT22;10936;49.836;7.078;2022-09-13T03:12:38;22.70;96.40
21551;DHT22;10936;49.836;7.078;2022-09-13T03:21:07;22.70;96.40
21551;DHT22;10936;49.836;7.078;2022-09-13T03:23:45;22.70;96.40
21551;DHT22;10936;49.836;7.078;2022-09-13T03:26:34;22.70;96.40
21551;DHT22;10936;49.836;7.078;2022-09-13T03:37:43;22.70;96.40
21551;DHT22;10936;49.836;7.078;2022-09-13T03:39:53;22.70;96.40
21551;DHT22;10936;49.836;7.078;2022-09-13T03:42:30;22.60;96.40
21551;DHT22;10936;49.836;7.078;2022-09-13T03:44:57;22.70;96.40
21551;DHT22;10936;49.836;7.078;2022-09-13T03:47:26;22.70;96.40
21551;DHT22;10936;49.836;7.078;2022-09-13T03:49:53;22.60;96.40
21551;DHT22;10936;49.836;7.078;2022-09-13T03:52:20;22.60;96.40
21551;DHT22;10936;49.836;7.078;2022-09-13T03:54:46;22.60;96.40
21551;DHT22;10936;49.836;7.078;2022-09-13T03:57:18;22.60;96.30
21551;DHT22;10936;49.836;7.078;2022-09-13T03:59:56;22.60;96.40
21551;DHT22;10936;49.836;7.078;2022-09-13T04:02:23;22.60;96.30
21551;DHT22;10936;49.836;7.078;2022-09-13T04:04:49;22.60;96.40
21551;DHT22;10936;49.836;7.078;2022-09-13T04:07:20;22.70;96.40
21551;DHT22;10936;49.836;7.078;2022-09-13T04:09:46;22.60;96.40
21551;DHT22;10936;49.836;7.078;2022-09-13T04:12:13;22.60;96.30
21551;DHT22;10936;49.836;7.078;2022-09-13T04:14:40;22.60;96.30
21551;DHT22;10936;49.836;7.078;2022-09-13T04:17:06;22.60;96.40
21551;DHT22;10936;49.836;7.078;2022-09-13T04:19:32;22.60;96.40
21551;DHT22;10936;49.836;7.078;2022-09-13T04:21:58;22.60;96.40
21551;DHT22;10936;49.836;7.078;2022-09-13T04:24:28;22.60;96.40
21551;DHT22;10936;49.836;7.078;2022-09-13T04:26:54;22.60;96.30
21551;DHT22;10936;49.836;7.078;2022-09-13T04:29:21;22.60;96.30
21551;DHT22;10936;49.836;7.078;2022-09-13T04:31:48;22.60;96.40
21551;DHT22;10936;49.836;7.078;2022-09-13T04:34:15;22.50;96.00
21551;DHT22;10936;49.836;7.078;2022-09-13T04:36:43;22.40;96.10
21551;DHT22;10936;49.836;7.078;2022-09-13T04:39:09;22.30;96.30
21551;DHT22;10936;49.836;7.078;2022-09-13T04:41:35;22.20;96.50
21551;DHT22;10936;49.836;7.078;2022-09-13T04:44:01;22.00;96.80
21551;DHT22;10936;49.836;7.078;2022-09-13T04:46:27;21.90;96.90
21551;DHT22;10936;49.836;7.078;2022-09-13T04:48:54;21.90;97.10
21551;DHT22;10936;49.836;7.078;2022-09-13T04:51:20;21.80;97.20
21551;DHT22;10936;49.836;7.078;2022-09-13T04:53:50;21.80;97.30
21551;DHT22;10936;49.836;7.078;2022-09-13T04:56:17;21.70;97.50
21551;DHT22;10936;49.836;7.078;2022-09-13T04:58:44;21.70;97.50
21551;DHT22;10936;49.836;7.078;2022-09-13T05:01:10;21.70;97.60
21551;DHT22;10936;49.836;7.078;2022-09-13T05:03:36;21.60;97.60
21551;DHT22;10936;49.836;7.078;2022-09-13T05:08:29;21.50;97.80
21551;DHT22;10936;49.836;7.078;2022-09-13T05:10:55;21.50;98.00
21551;DHT22;10936;49.836;7.078;2022-09-13T05:13:20;21.50;98.10
21551;DHT22;10936;49.836;7.078;2022-09-13T05:15:46;21.40;98.10
21551;DHT22;10936;49.836;7.078;2022-09-13T05:18:12;21.40;98.20
21551;DHT22;10936;49.836;7.078;2022-09-13T05:20:38;21.40;98.20
21551;DHT22;10936;49.836;7.078;2022-09-13T05:23:03;21.40;98.30
21551;DHT22;10936;49.836;7.078;2022-09-13T05:25:29;21.40;98.40
21551;DHT22;10936;49.836;7.078;2022-09-13T05:27:56;21.30;98.30
21551;DHT22;10936;49.836;7.078;2022-09-13T05:30:22;21.30;98.30
21551;DHT22;10936;49.836;7.078;2022-09-13T05:32:48;21.30;98.40
21551;DHT22;10936;49.836;7.078;2022-09-13T05:35:14;21.30;98.60
21551;DHT22;10936;49.836;7.078;2022-09-13T05:37:39;21.30;98.70
21551;DHT22;10936;49.836;7.078;2022-09-13T05:40:05;21.20;98.90
21551;DHT22;10936;49.836;7.078;2022-09-13T05:42:31;21.20;98.90
21551;DHT22;10936;49.836;7.078;2022-09-13T05:44:57;21.20;99.00
21551;DHT22;10936;49.836;7.078;2022-09-13T05:47:22;21.20;99.10
21551;DHT22;10936;49.836;7.078;2022-09-13T05:49:48;21.20;99.10
21551;DHT22;10936;49.836;7.078;2022-09-13T05:52:14;21.10;99.20
21551;DHT22;10936;49.836;7.078;2022-09-13T05:54:39;21.10;99.30
21551;DHT22;10936;49.836;7.078;2022-09-13T05:57:05;21.20;99.40
21551;DHT22;10936;49.836;7.078;2022-09-13T05:59:30;21.20;99.50
21551;DHT22;10936;49.836;7.078;2022-09-13T06:01:57;21.30;99.50
21551;DHT22;10936;49.836;7.078;2022-09-13T06:04:22;21.40;99.50
21551;DHT22;10936;49.836;7.078;2022-09-13T06:06:48;21.40;99.40
21551;DHT22;10936;49.836;7.078;2022-09-13T06:09:14;21.50;99.40
21551;DHT22;10936;49.836;7.078;2022-09-13T06:11:40;21.50;99.50
21551;DHT22;10936;49.836;7.078;2022-09-13T06:14:06;21.50;99.60
21551;DHT22;10936;49.836;7.078;2022-09-13T06:16:32;21.50;99.60
21551;DHT22;10936;49.836;7.078;2022-09-13T06:18:58;21.40;99.60
21551;DHT22;10936;49.836;7.078;2022-09-13T06:21:23;21.40;99.80
21551;DHT22;10936;49.836;7.078;2022-09-13T06:23:51;21.40;99.90
21551;DHT22;10936;49.836;7.078;2022-09-13T06:26:20;21.40;99.90
21551;DHT22;10936;49.836;7.078;2022-09-13T06:28:50;21.40;99.90
21551;DHT22;10936;49.836;7.078;2022-09-13T06:31:17;21.40;99.90
21551;DHT22;10936;49.836;7.078;2022-09-13T06:33:43;21.40;99.90
21551;DHT22;10936;49.836;7.078;2022-09-13T06:36:14;21.30;99.90
21551;DHT22;10936;49.836;7.078;2022-09-13T06:38:42;21.30;99.90
21551;DHT22;10936;49.836;7.078;2022-09-13T06:41:10;21.30;99.90
21551;DHT22;10936;49.836;7.078;2022-09-13T06:43:37;21.30;99.90
21551;DHT22;10936;49.836;7.078;2022-09-13T06:48:34;21.30;99.90
21551;DHT22;10936;49.836;7.078;2022-09-13T06:51:02;21.30;99.90
21551;DHT22;10936;49.836;7.078;2022-09-13T06:53:29;21.30;99.90
21551;DHT22;10936;49.836;7.078;2022-09-13T06:56:12;21.30;99.90
21551;DHT22;10936;49.836;7.078;2022-09-13T06:58:39;21.30;99.90
21551;DHT22;10936;49.836;7.078;2022-09-13T07:03:35;21.30;99.90
21551;DHT22;10936;49.836;7.078;2022-09-13T07:06:06;21.30;99.90
21551;DHT22;10936;49.836;7.078;2022-09-13T07:08:32;21.30;99.90
21551;DHT22;10936;49.836;7.078;2022-09-13T07:10:59;21.30;99.90
21551;DHT22;10936;49.836;7.078;2022-09-13T07:13:24;21.30;99.90
21551;DHT22;10936;49.836;7.078;2022-09-13T07:15:50;21.30;99.90
21551;DHT22;10936;49.836;7.078;2022-09-13T07:18:15;21.30;99.90
21551;DHT22;10936;49.836;7.078;2022-09-13T07:20:41;21.30;99.90
21551;DHT22;10936;49.836;7.078;2022-09-13T07:23:07;21.30;99.90
21551;DHT22;10936;49.836;7.078;2022-09-13T07:25:32;21.40;99.90
21551;DHT22;10936;49.836;7.078;2022-09-13T07:27:58;21.40;99.90
21551;DHT22;10936;49.836;7.078;2022-09-13T07:30:23;21.40;99.90
21551;DHT22;10936;49.836;7.078;2022-09-13T07:32:51;21.50;99.90
21551;DHT22;10936;49.836;7.078;2022-09-13T07:35:16;21.50;99.90
21551;DHT22;10936;49.836;7.078;2022-09-13T07:37:42;21.50;99.90
21551;DHT22;10936;49.836;7.078;2022-09-13T07:40:10;21.60;99.90
21551;DHT22;10936;49.836;7.078;2022-09-13T07:42:35;21.60;99.90
21551;DHT22;10936;49.836;7.078;2022-09-13T07:45:01;21.60;99.90
21551;DHT22;10936;49.836;7.078;2022-09-13T07:47:27;21.70;99.90
21551;DHT22;10936;49.836;7.078;2022-09-13T07:49:52;21.70;99.90
21551;DHT22;10936;49.836;7.078;2022-09-13T07:52:18;21.70;99.90
21551;DHT22;10936;49.836;7.078;2022-09-13T07:54:43;21.60;99.90
21551;DHT22;10936;49.836;7.078;2022-09-13T07:57:09;21.70;99.90
21551;DHT22;10936;49.836;7.078;2022-09-13T07:59:35;21.70;99.90
21551;DHT22;10936;49.836;7.078;2022-09-13T08:02:00;21.80;99.90
21551;DHT22;10936;49.836;7.078;2022-09-13T08:04:26;21.80;99.90
21551;DHT22;10936;49.836;7.078;2022-09-13T08:06:51;21.80;99.90
21551;DHT22;10936;49.836;7.078;2022-09-13T08:09:17;21.90;99.90
21551;DHT22;10936;49.836;7.078;2022-09-13T08:11:44;21.90;99.90
21551;DHT22;10936;49.836;7.078;2022-09-13T08:14:12;21.90;99.90
21551;DHT22;10936;49.836;7.078;2022-09-13T08:16:38;21.90;99.90
21551;DHT22;10936;49.836;7.078;2022-09-13T08:19:05;22.00;99.90
21551;DHT22;10936;49.836;7.078;2022-09-13T08:21:37;22.00;99.90
21551;DHT22;10936;49.836;7.078;2022-09-13T08:24:04;22.00;99.90
21551;DHT22;10936;49.836;7.078;2022-09-13T08:26:31;22.00;99.90
21551;DHT22;10936;49.836;7.078;2022-09-13T08:29:04;22.00;99.90
21551;DHT22;10936;49.836;7.078;2022-09-13T08:31:30;22.00;99.90
21551;DHT22;10936;49.836;7.078;2022-09-13T08:33:56;22.00;99.90
21551;DHT22;10936;49.836;7.078;2022-09-13T08:36:23;22.00;99.90
21551;DHT22;10936;49.836;7.078;2022-09-13T08:38:52;22.00;99.90
21551;DHT22;10936;49.836;7.078;2022-09-13T08:44:36;22.10;99.90
21551;DHT22;10936;49.836;7.078;2022-09-13T08:47:23;22.10;99.90
21551;DHT22;10936;49.836;7.078;2022-09-13T08:50:22;22.10;99.90
21551;DHT22;10936;49.836;7.078;2022-09-13T09:04:18;22.20;99.90
21551;DHT22;10936;49.836;7.078;2022-09-13T09:06:47;22.20;99.90
21551;DHT22;10936;49.836;7.078;2022-09-13T09:09:15;22.20;99.90
21551;DHT22;10936;49.836;7.078;2022-09-13T09:12:35;22.20;99.90
21551;DHT22;10936;49.836;7.078;2022-09-13T09:14:50;22.20;99.90
21551;DHT22;10936;49.836;7.078;2022-09-13T09:17:25;22.20;99.90
21551;DHT22;10936;49.836;7.078;2022-09-13T09:19:58;22.20;99.90
21551;DHT22;10936;49.836;7.078;2022-09-13T09:22:31;22.20;99.90
21551;DHT22;10936;49.836;7.078;2022-09-13T09:24:58;22.20;99.90
21551;DHT22;10936;49.836;7.078;2022-09-13T09:27:24;22.20;99.90
21551;DHT22;10936;49.836;7.078;2022-09-13T09:29:53;22.20;99.90
21551;DHT22;10936;49.836;7.078;2022-09-13T09:37:41;22.30;99.90
21551;DHT22;10936;49.836;7.078;2022-09-13T09:40:12;22.20;99.90
21551;DHT22;10936;49.836;7.078;2022-09-13T09:42:44;22.30;99.90
21551;DHT22;10936;49.836;7.078;2022-09-13T09:45:34;22.30;99.90
21551;DHT22;10936;49.836;7.078;2022-09-13T09:48:07;22.30;99.90
21551;DHT22;10936;49.836;7.078;2022-09-13T09:50:40;22.30;99.90
21551;DHT22;10936;49.836;7.078;2022-09-13T09:53:31;22.30;99.90
21551;DHT22;10936;49.836;7.078;2022-09-13T09:56:05;22.30;99.90
21551;DHT22;10936;49.836;7.078;2022-09-13T10:01:03;22.30;99.90
21551;DHT22;10936;49.836;7.078;2022-09-13T10:03:32;22.30;99.90
21551;DHT22;10936;49.836;7.078;2022-09-13T10:06:10;22.30;99.90
21551;DHT22;10936;49.836;7.078;2022-09-13T10:08:39;22.30;99.90
21551;DHT22;10936;49.836;7.078;2022-09-13T10:11:06;22.30;99.90
21551;DHT22;10936;49.836;7.078;2022-09-13T10:13:32;22.20;99.90
21551;DHT22;10936;49.836;7.078;2022-09-13T10:16:06;22.20;99.90
21551;DHT22;10936;49.836;7.078;2022-09-13T10:18:46;22.20;99.90
21551;DHT22;10936;49.836;7.078;2022-09-13T10:23:48;22.20;99.90
21551;DHT22;10936;49.836;7.078;2022-09-13T10:26:22;22.20;99.90
21551;DHT22;10936;49.836;7.078;2022-09-13T10:29:12;22.20;99.90
21551;DHT22;10936;49.836;7.078;2022-09-13T10:31:42;22.20;99.90
21551;DHT22;10936;49.836;7.078;2022-09-13T10:34:19;22.20;99.90
21551;DHT22;10936;49.836;7.078;2022-09-13T10:36:58;22.20;99.90
21551;DHT22;10936;49.836;7.078;2022-09-13T10:39:28;22.30;99.90
21551;DHT22;10936;49.836;7.078;2022-09-13T10:42:07;22.30;99.90
21551;DHT22;10936;49.836;7.078;2022-09-13T10:44:40;22.30;99.90
21551;DHT22;10936;49.836;7.078;2022-09-13T10:47:28;22.30;99.90
21551;DHT22;10936;49.836;7.078;2022-09-13T10:49:58;22.40;99.90
21551;DHT22;10936;49.836;7.078;2022-09-13T10:52:41;22.30;99.90
21551;DHT22;10936;49.836;7.078;2022-09-13T10:55:35;22.40;99.90
21551;DHT22;10936;49.836;7.078;2022-09-13T11:01:06;22.40;99.90
21551;DHT22;10936;49.836;7.078;2022-09-13T11:03:49;22.40;99.90
21551;DHT22;10936;49.836;7.078;2022-09-13T11:06:34;22.40;99.90
21551;DHT22;10936;49.836;7.078;2022-09-13T11:09:21;22.40;99.90
21551;DHT22;10936;49.836;7.078;2022-09-13T11:28:02;22.50;99.90
21551;DHT22;10936;49.836;7.078;2022-09-13T11:30:50;22.50;99.90
21551;DHT22;10936;49.836;7.078;2022-09-13T11:39:02;22.60;99.90
21551;DHT22;10936;49.836;7.078;2022-09-13T11:53:05;22.60;99.90
21551;DHT22;10936;49.836;7.078;2022-09-13T11:55:26;22.70;99.90
21551;DHT22;10936;49.836;7.078;2022-09-13T11:57:57;22.70;99.90
21551;DHT22;10936;49.836;7.078;2022-09-13T12:00:40;22.70;99.90
21551;DHT22;10936;49.836;7.078;2022-09-13T12:05:46;22.70;99.90
21551;DHT22;10936;49.836;7.078;2022-09-13T12:08:46;22.80;99.90
21551;DHT22;10936;49.836;7.078;2022-09-13T12:11:21;22.80;99.90
21551;DHT22;10936;49.836;7.078;2022-09-13T12:14:00;22.80;99.90
21551;DHT22;10936;49.836;7.078;2022-09-13T12:16:31;22.80;99.90
21551;DHT22;10936;49.836;7.078;2022-09-13T12:19:01;22.90;99.90
21551;DHT22;10936;49.836;7.078;2022-09-13T12:21:35;22.90;99.90
21551;DHT22;10936;49.836;7.078;2022-09-13T12:26:54;22.90;99.90
21551;DHT22;10936;49.836;7.078;2022-09-13T12:29:37;22.90;99.90
21551;DHT22;10936;49.836;7.078;2022-09-13T12:32:06;22.90;99.90
21551;DHT22;10936;49.836;7.078;2022-09-13T12:59:18;22.90;99.90
21551;DHT22;10936;49.836;7.078;2022-09-13T13:01:49;22.90;99.90
21551;DHT22;10936;49.836;7.078;2022-09-13T13:04:41;22.90;99.90
21551;DHT22;10936;49.836;7.078;2022-09-13T13:07:19;23.00;99.90
21551;DHT22;10936;49.836;7.078;2022-09-13T13:09:48;22.90;99.90
21551;DHT22;10936;49.836;7.078;2022-09-13T13:12:35;23.00;99.90
21551;DHT22;10936;49.836;7.078;2022-09-13T13:15:06;23.00;99.90
21551;DHT22;10936;49.836;7.078;2022-09-13T13:17:50;23.00;99.90
21551;DHT22;10936;49.836;7.078;2022-09-13T13:23:31;22.90;99.90
21551;DHT22;10936;49.836;7.078;2022-09-13T13:42:10;23.00;99.90
21551;DHT22;10936;49.836;7.078;2022-09-13T13:57:29;23.00;99.90
21551;DHT22;10936;49.836;7.078;2022-09-13T14:00:16;23.00;99.90
21551;DHT22;10936;49.836;7.078;2022-09-13T14:02:55;23.00;99.90
21551;DHT22;10936;49.836;7.078;2022-09-13T14:08:33;23.00;99.90
21551;DHT22;10936;49.836;7.078;2022-09-13T14:21:39;23.10;99.90
21551;DHT22;10936;49.836;7.078;2022-09-13T14:24:23;23.10;99.90
21551;DHT22;10936;49.836;7.078;2022-09-13T14:27:12;23.10;99.90
21551;DHT22;10936;49.836;7.078;2022-09-13T14:29:39;23.10;99.90
21551;DHT22;10936;49.836;7.078;2022-09-13T14:32:06;23.10;99.90
21551;DHT22;10936;49.836;7.078;2022-09-13T14:34:36;23.00;99.90
21551;DHT22;10936;49.836;7.078;2022-09-13T14:37:18;23.10;99.90
21551;DHT22;10936;49.836;7.078;2022-09-13T14:40:18;23.00;99.90
21551;DHT22;10936;49.836;7.078;2022-09-13T14:42:46;23.00;99.90
21551;DHT22;10936;49.836;7.078;2022-09-13T14:45:19;23.10;99.90
21551;DHT22;10936;49.836;7.078;2022-09-13T14:47:52;23.00;99.90
21551;DHT22;10936;49.836;7.078;2022-09-13T14:50:24;23.00;99.90
21551;DHT22;10936;49.836;7.078;2022-09-13T14:52:53;23.00;99.90
21551;DHT22;10936;49.836;7.078;2022-09-13T14:55:30;23.00;99.90
21551;DHT22;10936;49.836;7.078;2022-09-13T14:58:04;23.00;99.90
21551;DHT22;10936;49.836;7.078;2022-09-13T15:00:33;23.00;99.90
21551;DHT22;10936;49.836;7.078;2022-09-13T15:03:04;23.00;99.90
21551;DHT22;10936;49.836;7.078;2022-09-13T15:05:35;23.00;99.90
21551;DHT22;10936;49.836;7.078;2022-09-13T15:11:06;23.00;99.90
21551;DHT22;10936;49.836;7.078;2022-09-13T15:13:36;23.10;99.90
21551;DHT22;10936;49.836;7.078;2022-09-13T15:16:30;23.00;99.90
21551;DHT22;10936;49.836;7.078;2022-09-13T15:19:26;23.00;99.90
21551;DHT22;10936;49.836;7.078;2022-09-13T15:22:04;23.10;99.90
21551;DHT22;10936;49.836;7.078;2022-09-13T15:24:33;23.00;99.90
21551;DHT22;10936;49.836;7.078;2022-09-13T15:27:05;23.00;99.90
21551;DHT22;10936;49.836;7.078;2022-09-13T15:29:31;23.10;99.90
21551;DHT22;10936;49.836;7.078;2022-09-13T15:32:00;23.00;99.90
21551;DHT22;10936;49.836;7.078;2022-09-13T15:34:26;23.00;99.90
21551;DHT22;10936;49.836;7.078;2022-09-13T15:39:24;23.00;99.90
21551;DHT22;10936;49.836;7.078;2022-09-13T15:41:55;23.00;99.90
21551;DHT22;10936;49.836;7.078;2022-09-13T15:44:22;23.00;99.90
21551;DHT22;10936;49.836;7.078;2022-09-13T15:46:53;23.00;99.90
21551;DHT22;10936;49.836;7.078;2022-09-13T15:49:21;23.00;99.90
21551;DHT22;10936;49.836;7.078;2022-09-13T15:51:52;23.00;99.90
21551;DHT22;10936;49.836;7.078;2022-09-13T15:54:18;23.00;99.90
21551;DHT22;10936;49.836;7.078;2022-09-13T15:56:48;23.00;99.90
21551;DHT22;10936;49.836;7.078;2022-09-13T15:59:18;23.00;99.90
21551;DHT22;10936;49.836;7.078;2022-09-13T16:01:45;23.00;99.90
21551;DHT22;10936;49.836;7.078;2022-09-13T16:04:11;23.00;99.90
21551;DHT22;10936;49.836;7.078;2022-09-13T16:06:38;23.00;99.90
21551;DHT22;10936;49.836;7.078;2022-09-13T16:09:36;23.00;99.90
21551;DHT22;10936;49.836;7.078;2022-09-13T16:12:03;23.00;99.90
21551;DHT22;10936;49.836;7.078;2022-09-13T16:14:29;23.00;99.90
21551;DHT22;10936;49.836;7.078;2022-09-13T16:16:54;23.00;99.90
21551;DHT22;10936;49.836;7.078;2022-09-13T16:19:22;23.00;99.90
21551;DHT22;10936;49.836;7.078;2022-09-13T16:21:48;23.00;99.90
21551;DHT22;10936;49.836;7.078;2022-09-13T16:24:15;23.00;99.90
21551;DHT22;10936;49.836;7.078;2022-09-13T16:26:41;23.00;99.90
21551;DHT22;10936;49.836;7.078;2022-09-13T16:29:09;23.00;99.90
21551;DHT22;10936;49.836;7.078;2022-09-13T16:31:35;23.00;99.90
21551;DHT22;10936;49.836;7.078;2022-09-13T16:34:01;23.00;99.90
21551;DHT22;10936;49.836;7.078;2022-09-13T16:36:26;23.00;99.90
21551;DHT22;10936;49.836;7.078;2022-09-13T16:38:54;23.00;99.90
21551;DHT22;10936;49.836;7.078;2022-09-13T16:41:20;23.00;99.90
21551;DHT22;10936;49.836;7.078;2022-09-13T16:43:46;23.00;99.90
21551;DHT22;10936;49.836;7.078;2022-09-13T16:46:11;23.00;99.90
21551;DHT22;10936;49.836;7.078;2022-09-13T16:48:38;23.00;99.90
21551;DHT22;10936;49.836;7.078;2022-09-13T16:51:06;23.00;99.90
21551;DHT22;10936;49.836;7.078;2022-09-13T16:53:33;23.00;99.90
21551;DHT22;10936;49.836;7.078;2022-09-13T16:56:06;23.00;99.90
21551;DHT22;10936;49.836;7.078;2022-09-13T16:58:38;23.00;99.90
21551;DHT22;10936;49.836;7.078;2022-09-13T17:01:09;23.00;99.90
21551;DHT22;10936;49.836;7.078;2022-09-13T17:03:35;23.10;99.90
21551;DHT22;10936;49.836;7.078;2022-09-13T17:06:07;23.00;99.90
21551;DHT22;10936;49.836;7.078;2022-09-13T17:08:35;23.00;99.90
21551;DHT22;10936;49.836;7.078;2022-09-13T17:11:08;23.00;99.90
21551;DHT22;10936;49.836;7.078;2022-09-13T17:13:35;23.00;99.90
21551;DHT22;10936;49.836;7.078;2022-09-13T17:16:01;23.00;99.90
21551;DHT22;10936;49.836;7.078;2022-09-13T17:18:27;23.00;99.90
21551;DHT22;10936;49.836;7.078;2022-09-13T17:20:53;23.00;99.90
21551;DHT22;10936;49.836;7.078;2022-09-13T17:23:18;23.00;99.90
21551;DHT22;10936;49.836;7.078;2022-09-13T17:25:48;23.00;99.90
21551;DHT22;10936;49.836;7.078;2022-09-13T17:28:15;23.00;99.90
21551;DHT22;10936;49.836;7.078;2022-09-13T17:30:42;23.00;99.90
21551;DHT22;10936;49.836;7.078;2022-09-13T17:33:08;23.00;99.90
21551;DHT22;10936;49.836;7.078;2022-09-13T17:35:34;23.00;99.90
21551;DHT22;10936;49.836;7.078;2022-09-13T17:38:00;23.00;99.90
21551;DHT22;10936;49.836;7.078;2022-09-13T17:40:27;23.00;99.90
21551;DHT22;10936;49.836;7.078;2022-09-13T17:42:54;23.00;99.90
21551;DHT22;10936;49.836;7.078;2022-09-13T17:45:20;23.00;99.90
21551;DHT22;10936;49.836;7.078;2022-09-13T17:47:46;23.00;99.90
21551;DHT22;10936;49.836;7.078;2022-09-13T17:50:12;23.00;99.90
21551;DHT22;10936;49.836;7.078;2022-09-13T17:52:38;22.90;99.90
21551;DHT22;10936;49.836;7.078;2022-09-13T17:55:04;23.00;99.90
21551;DHT22;10936;49.836;7.078;2022-09-13T17:57:32;22.90;99.90
21551;DHT22;10936;49.836;7.078;2022-09-13T17:59:57;23.00;99.90
21551;DHT22;10936;49.836;7.078;2022-09-13T18:02:23;23.00;99.90
21551;DHT22;10936;49.836;7.078;2022-09-13T18:04:50;23.00;99.90
21551;DHT22;10936;49.836;7.078;2022-09-13T18:07:16;22.90;99.90
21551;DHT22;10936;49.836;7.078;2022-09-13T18:09:42;22.90;99.90
21551;DHT22;10936;49.836;7.078;2022-09-13T18:12:09;22.90;99.90
21551;DHT22;10936;49.836;7.078;2022-09-13T18:14:34;22.90;99.90
21551;DHT22;10936;49.836;7.078;2022-09-13T18:17:00;22.90;99.90
21551;DHT22;10936;49.836;7.078;2022-09-13T18:19:25;22.90;99.90
21551;DHT22;10936;49.836;7.078;2022-09-13T18:21:52;22.90;99.90
21551;DHT22;10936;49.836;7.078;2022-09-13T18:24:19;22.90;99.90
21551;DHT22;10936;49.836;7.078;2022-09-13T18:26:44;22.90;99.90
21551;DHT22;10936;49.836;7.078;2022-09-13T18:29:12;22.90;99.90
21551;DHT22;10936;49.836;7.078;2022-09-13T18:31:39;22.90;99.90
21551;DHT22;10936;49.836;7.078;2022-09-13T18:34:08;22.90;99.90
21551;DHT22;10936;49.836;7.078;2022-09-13T18:36:35;22.90;99.90
21551;DHT22;10936;49.836;7.078;2022-09-13T18:39:03;22.90;99.90
21551;DHT22;10936;49.836;7.078;2022-09-13T18:41:34;22.90;99.90
21551;DHT22;10936;49.836;7.078;2022-09-13T18:44:00;22.90;99.90
21551;DHT22;10936;49.836;7.078;2022-09-13T18:46:29;22.90;99.90
21551;DHT22;10936;49.836;7.078;2022-09-13T18:48:56;22.90;99.90
21551;DHT22;10936;49.836;7.078;2022-09-13T18:51:25;22.80;99.90
21551;DHT22;10936;49.836;7.078;2022-09-13T18:53:52;22.90;99.90
21551;DHT22;10936;49.836;7.078;2022-09-13T18:56:21;22.90;99.90
21551;DHT22;10936;49.836;7.078;2022-09-13T18:58:51;22.80;99.90
21551;DHT22;10936;49.836;7.078;2022-09-13T19:01:20;22.90;99.90
21551;DHT22;10936;49.836;7.078;2022-09-13T19:03:48;22.80;99.90
21551;DHT22;10936;49.836;7.078;2022-09-13T19:06:20;22.80;99.90
21551;DHT22;10936;49.836;7.078;2022-09-13T19:08:46;22.80;99.90
21551;DHT22;10936;49.836;7.078;2022-09-13T19:11:13;22.70;99.90
21551;DHT22;10936;49.836;7.078;2022-09-13T19:13:40;22.70;99.90